createdAt,value
2023-03-06T00:00:17.772Z,15.13
2023-03-06T00:04:20.641Z,15.18
2023-03-06T00:08:23.538Z,14.07
2023-03-06T00:12:28.361Z,13.95
2023-03-06T00:16:31.110Z,14.82
2023-03-06T00:20:35.534Z,12.85
2023-03-06T00:24:38.227Z,13.75
2023-03-06T00:28:42.299Z,13.13
2023-03-06T00:32:45.932Z,12.73
2023-03-06T00:36:48.700Z,12.88
2023-03-06T00:40:51.410Z,12.55
2023-03-06T00:44:55.604Z,12.60
2023-03-06T00:48:58.547Z,12.68
2023-03-06T00:53:01.343Z,12.35
2023-03-06T00:57:04.076Z,12.07
2023-03-06T01:01:08.496Z,11.32
2023-03-06T01:05:14.082Z,11.32
2023-03-06T01:09:16.876Z,11.27
2023-03-06T01:13:19.635Z,11.40
2023-03-06T01:17:23.692Z,10.10
2023-03-06T01:21:26.480Z,10.18
2023-03-06T01:25:29.407Z,10.35
2023-03-06T01:29:32.162Z,10.35
2023-03-06T01:33:37.163Z,9.85
2023-03-06T01:37:40.929Z,10.45
2023-03-06T01:41:43.735Z,10.77
2023-03-06T01:46:23.555Z,11.95
2023-03-06T01:50:28.054Z,13.02
2023-03-06T01:54:33.542Z,13.10
2023-03-06T01:58:36.695Z,13.05
2023-03-06T02:02:41.211Z,14.48
2023-03-06T02:06:45.719Z,15.18
2023-03-06T02:11:02.206Z,15.27
2023-03-06T02:15:05.770Z,16.98
2023-03-06T02:19:16.028Z,17.48
2023-03-06T02:23:27.530Z,17.15
2023-03-06T02:27:32.796Z,17.30
2023-03-06T02:31:36.268Z,18.50
2023-03-06T02:35:40.223Z,18.50
2023-03-06T02:39:47.874Z,18.73
2023-03-06T02:43:55.574Z,20.48
2023-03-06T02:47:58.522Z,20.08
2023-03-06T02:52:01.544Z,20.33
2023-03-06T02:56:04.344Z,22.77
2023-03-06T03:00:09.968Z,22.23
2023-03-06T03:04:12.989Z,23.27
2023-03-06T03:08:15.930Z,23.98
2023-03-06T03:12:18.718Z,23.45
2023-03-06T03:16:22.818Z,25.92
2023-03-06T03:20:25.677Z,25.50
2023-03-06T03:24:29.012Z,26.23
2023-03-06T03:28:31.807Z,26.73
2023-03-06T03:32:36.305Z,26.80
2023-03-06T03:36:40.085Z,28.27
2023-03-06T03:40:44.837Z,29.30
2023-03-06T03:44:49.482Z,31.13
2023-03-06T03:48:55.110Z,31.10
2023-03-06T03:52:57.930Z,30.63
2023-03-06T03:57:00.858Z,31.98
2023-03-06T04:01:08.807Z,31.42
2023-03-06T04:05:15.497Z,27.00
2023-03-06T04:09:18.545Z,28.88
2023-03-06T04:13:22.650Z,30.42
2023-03-06T04:17:27.656Z,30.60
2023-03-06T04:21:32.839Z,31.38
2023-03-06T04:25:36.090Z,32.88
2023-03-06T04:29:41.154Z,32.30
2023-03-06T04:33:43.981Z,30.77
2023-03-06T04:37:48.171Z,31.90
2023-03-06T04:41:51.012Z,31.63
2023-03-06T04:45:53.897Z,31.05
2023-03-06T04:49:56.645Z,29.95
2023-03-06T04:54:00.678Z,26.83
2023-03-06T04:58:03.713Z,20.60
2023-03-06T05:02:06.592Z,19.70
2023-03-06T05:06:09.575Z,19.30
2023-03-06T05:10:18.263Z,19.98
2023-03-06T05:14:21.007Z,19.33
2023-03-06T05:18:23.739Z,18.98
2023-03-06T05:22:26.503Z,19.60
2023-03-06T05:26:30.645Z,18.90
2023-03-06T05:30:33.553Z,18.95
2023-03-06T05:34:36.338Z,18.73
2023-03-06T05:38:39.220Z,17.73
2023-03-06T05:42:43.312Z,19.02
2023-03-06T05:46:46.048Z,18.48
2023-03-06T05:50:56.222Z,18.55
2023-03-06T05:54:58.912Z,18.25
2023-03-06T05:59:03.055Z,17.92
2023-03-06T06:03:05.871Z,18.60
2023-03-06T06:07:08.620Z,17.42
2023-03-06T06:11:13.026Z,17.35
2023-03-06T06:15:17.133Z,17.58
2023-03-06T06:19:20.307Z,16.40
2023-03-06T06:23:23.272Z,16.17
2023-03-06T06:27:25.937Z,17.77
2023-03-06T06:31:30.048Z,17.27
2023-03-06T06:35:36.812Z,16.73
2023-03-06T06:39:39.536Z,15.68
2023-03-06T06:43:42.244Z,16.48
2023-03-06T06:47:46.333Z,15.40
2023-03-06T06:51:49.068Z,15.02
2023-03-06T06:55:52.149Z,14.00
2023-03-06T06:59:54.895Z,12.20
2023-03-06T07:03:59.124Z,12.55
2023-03-06T07:08:01.923Z,13.77
2023-03-06T07:12:04.819Z,14.02
2023-03-06T07:16:08.626Z,14.27
2023-03-06T07:20:13.215Z,14.10
2023-03-06T07:24:16.003Z,16.42
2023-03-06T07:28:19.632Z,16.60
2023-03-06T07:32:22.516Z,18.48
2023-03-06T07:36:26.568Z,17.33
2023-03-06T07:40:29.403Z,18.33
2023-03-06T07:44:32.694Z,17.27
2023-03-06T07:48:36.171Z,16.58
2023-03-06T07:52:40.255Z,17.23
2023-03-06T07:56:42.961Z,16.10
2023-03-06T08:00:45.917Z,17.73
2023-03-06T08:04:53.408Z,18.45
2023-03-06T08:08:57.711Z,19.00
2023-03-06T08:13:00.411Z,20.27
2023-03-06T08:17:03.317Z,20.10
2023-03-06T08:21:07.925Z,20.38
2023-03-06T08:25:13.259Z,19.60
2023-03-06T08:29:16.296Z,19.60
2023-03-06T08:33:19.013Z,18.02
2023-03-06T08:37:21.852Z,18.42
2023-03-06T08:41:26.308Z,17.08
2023-03-06T08:45:29.021Z,16.95
2023-03-06T08:49:31.742Z,15.75
2023-03-06T08:53:43.095Z,14.32
2023-03-06T08:57:47.995Z,14.98
2023-03-06T09:01:50.738Z,14.73
2023-03-06T09:05:53.437Z,14.43
2023-03-06T09:09:57.682Z,15.25
2023-03-06T09:14:01.764Z,16.20
2023-03-06T09:18:04.662Z,16.58
2023-03-06T09:22:07.561Z,16.23
2023-03-06T09:26:10.277Z,17.77
2023-03-06T09:30:15.940Z,20.25
2023-03-06T09:34:21.231Z,20.45
2023-03-06T09:38:26.087Z,19.90
2023-03-06T09:42:29.853Z,21.42
2023-03-06T09:46:47.153Z,21.17
2023-03-06T09:50:55.355Z,19.98
2023-03-06T09:55:02.733Z,19.98
2023-03-06T09:59:13.216Z,18.63
2023-03-06T10:03:23.556Z,19.75
2023-03-06T10:07:32.662Z,19.48
2023-03-06T10:11:40.467Z,20.65
2023-03-06T10:15:48.147Z,19.27
2023-03-06T10:19:53.696Z,18.58
2023-03-06T10:24:04.778Z,20.02
2023-03-06T10:28:16.602Z,17.50
2023-03-06T10:32:34.254Z,18.45
2023-03-06T10:36:44.039Z,17.73
2023-03-06T10:41:04.529Z,18.48
2023-03-06T10:45:10.487Z,18.23
2023-03-06T10:49:26.365Z,18.67
2023-03-06T10:53:30.624Z,17.08
2023-03-06T10:57:33.923Z,18.27
2023-03-06T11:01:37.096Z,17.98
2023-03-06T11:05:40.477Z,17.95
2023-03-06T11:09:47.707Z,17.75
2023-03-06T11:13:59.226Z,18.38
2023-03-06T11:18:05.042Z,18.60
2023-03-06T11:22:18.887Z,18.08
2023-03-06T11:26:37.351Z,19.65
2023-03-06T11:30:45.029Z,18.88
2023-03-06T11:34:50.759Z,19.33
2023-03-06T11:38:55.227Z,19.92
2023-03-06T11:43:06.194Z,20.20
2023-03-06T11:47:16.402Z,20.05
2023-03-06T11:51:24.250Z,20.88
2023-03-06T11:55:40.009Z,20.98
2023-03-06T12:00:08.463Z,18.25
2023-03-06T12:04:38.768Z,15.95
2023-03-06T12:08:51.017Z,14.02
2023-03-06T12:13:16.588Z,13.32
2023-03-06T12:17:27.417Z,11.77
2023-03-06T12:21:43.170Z,11.38
2023-03-06T12:25:52.674Z,9.77
2023-03-06T12:30:16.895Z,8.98
2023-03-06T12:34:32.567Z,8.93
2023-03-06T12:38:52.913Z,9.45
2023-03-06T12:43:20.660Z,12.70
2023-03-06T12:47:26.113Z,9.45
2023-03-06T12:51:32.154Z,8.95
2023-03-06T12:55:40.493Z,9.55
2023-03-06T12:59:47.711Z,8.00
2023-03-06T13:04:06.319Z,7.25
2023-03-06T13:08:33.293Z,7.82
2023-03-06T13:12:55.790Z,7.32
2023-03-06T13:17:34.461Z,8.02
2023-03-06T13:22:27.688Z,7.88
2023-03-06T13:26:53.871Z,7.72
2023-03-06T13:30:57.032Z,7.72
2023-03-06T13:34:59.932Z,7.35
2023-03-06T13:39:08.548Z,6.32
2023-03-06T13:43:24.967Z,7.13
2023-03-06T13:48:21.147Z,6.63
2023-03-06T13:52:23.060Z,7.30
2023-03-06T13:57:08.476Z,8.20
2023-03-06T14:01:32.309Z,8.25
2023-03-06T14:05:44.204Z,8.70
2023-03-06T14:09:49.004Z,8.23
2023-03-06T14:13:54.869Z,7.15
2023-03-06T14:18:02.427Z,8.32
2023-03-06T14:22:06.931Z,7.72
2023-03-06T14:26:17.327Z,6.78
2023-03-06T14:30:22.578Z,8.05
2023-03-06T14:34:29.846Z,8.35
2023-03-06T14:38:37.075Z,8.38
2023-03-06T14:42:39.866Z,9.35
2023-03-06T14:46:42.730Z,9.10
2023-03-06T14:50:51.746Z,8.90
2023-03-06T14:54:54.526Z,8.55
2023-03-06T14:59:01.144Z,8.43
2023-03-06T15:03:06.652Z,8.48
2023-03-06T15:07:14.287Z,8.38
2023-03-06T15:11:17.075Z,7.70
2023-03-06T15:15:29.636Z,7.68
2023-03-06T15:19:40.203Z,7.68
2023-03-06T15:23:46.809Z,7.05
2023-03-06T15:27:51.719Z,7.00
2023-03-06T15:32:14.470Z,7.43
2023-03-06T15:36:27.473Z,6.47
2023-03-06T15:40:32.961Z,6.93
2023-03-06T15:44:35.849Z,6.80
2023-03-06T15:48:39.292Z,7.18
2023-03-06T15:52:42.140Z,6.90
2023-03-06T15:56:48.115Z,6.88
2023-03-06T16:00:51.009Z,7.60
2023-03-06T16:04:54.322Z,8.25
2023-03-06T16:08:57.305Z,7.43
2023-03-06T16:13:04.039Z,7.43
2023-03-06T16:17:06.823Z,6.72
2023-03-06T16:21:09.550Z,5.28
2023-03-06T16:25:13.058Z,5.50
2023-03-06T16:29:17.983Z,5.18
2023-03-06T16:33:20.725Z,5.43
2023-03-06T16:37:24.157Z,6.30
2023-03-06T16:41:27.512Z,6.10
2023-03-06T16:45:31.712Z,6.35
2023-03-06T16:49:34.498Z,6.35
2023-03-06T16:53:37.245Z,7.55
2023-03-06T16:57:39.968Z,6.90
2023-03-06T17:01:44.696Z,7.55
2023-03-06T17:05:47.528Z,7.70
2023-03-06T17:09:50.751Z,7.47
2023-03-06T17:13:54.668Z,7.38
2023-03-06T17:17:58.972Z,7.53
2023-03-06T17:22:01.656Z,8.20
2023-03-06T17:26:10.114Z,7.65
2023-03-06T17:30:13.796Z,7.97
2023-03-06T17:34:17.964Z,8.30
2023-03-06T17:38:20.647Z,9.02
2023-03-06T17:42:23.474Z,9.75
2023-03-06T17:46:26.344Z,9.65
2023-03-06T17:50:30.443Z,10.30
2023-03-06T17:54:33.363Z,10.98
2023-03-06T17:58:36.448Z,10.65
2023-03-06T18:02:39.223Z,10.95
2023-03-06T18:06:43.315Z,10.25
2023-03-06T18:10:47.676Z,10.77
2023-03-06T18:14:50.722Z,11.55
2023-03-06T18:18:55.523Z,11.27
2023-03-06T18:23:03.830Z,11.85
2023-03-06T18:27:06.907Z,12.07
2023-03-06T18:31:16.737Z,12.50
2023-03-06T18:35:19.692Z,12.45
2023-03-06T18:39:23.781Z,13.68
2023-03-06T18:43:26.589Z,12.23
2023-03-06T18:47:45.261Z,13.57
2023-03-06T18:51:49.990Z,13.27
2023-03-06T18:55:54.638Z,12.88
2023-03-06T18:59:57.329Z,12.75
2023-03-06T19:04:02.034Z,12.85
2023-03-06T19:08:05.475Z,13.32
2023-03-06T19:12:10.069Z,14.57
2023-03-06T19:16:18.988Z,18.98
2023-03-06T19:20:22.721Z,13.85
2023-03-06T19:24:26.032Z,13.60
2023-03-06T19:28:30.120Z,13.85
2023-03-06T19:32:33.275Z,14.70
2023-03-06T19:36:38.609Z,13.27
2023-03-06T19:40:41.438Z,13.45
2023-03-06T19:44:45.764Z,13.32
2023-03-06T19:48:48.842Z,12.95
2023-03-06T19:52:52.410Z,13.57
2023-03-06T19:56:55.482Z,12.70
2023-03-06T20:01:09.330Z,13.45
2023-03-06T20:05:12.342Z,13.20
2023-03-06T20:09:15.125Z,13.23
2023-03-06T20:13:18.436Z,11.85
2023-03-06T20:17:23.456Z,12.73
2023-03-06T20:21:27.051Z,12.75
2023-03-06T20:25:29.835Z,13.32
2023-03-06T20:29:32.607Z,13.75
2023-03-06T20:33:36.727Z,13.07
2023-03-06T20:37:40.739Z,13.98
2023-03-06T20:41:47.051Z,13.02
2023-03-06T20:45:57.446Z,13.60
2023-03-06T20:50:01.469Z,13.85
2023-03-06T20:54:04.812Z,14.10
2023-03-06T20:58:07.570Z,14.38
2023-03-06T21:02:11.807Z,15.25
2023-03-06T21:06:16.107Z,15.40
2023-03-06T21:10:19.010Z,15.00
2023-03-06T21:14:21.766Z,15.65
2023-03-06T21:18:24.534Z,15.15
2023-03-06T21:22:31.664Z,15.85
2023-03-06T21:26:34.956Z,15.32
2023-03-06T21:30:37.649Z,16.88
2023-03-06T21:34:40.388Z,16.02
2023-03-06T21:38:44.409Z,16.33
2023-03-06T21:42:47.346Z,15.90
2023-03-06T21:46:51.241Z,16.48
2023-03-06T21:50:53.920Z,15.52
2023-03-06T21:54:58.159Z,16.30
2023-03-06T21:59:00.966Z,16.00
2023-03-06T22:03:04.659Z,15.70
2023-03-06T22:07:07.490Z,15.00
2023-03-06T22:11:13.679Z,16.38
2023-03-06T22:15:16.531Z,15.80
2023-03-06T22:19:19.254Z,16.58
2023-03-06T22:23:24.754Z,15.35
2023-03-06T22:27:29.918Z,15.45
2023-03-06T22:31:33.077Z,16.20
2023-03-06T22:35:35.966Z,15.95
2023-03-06T22:39:38.909Z,16.77
2023-03-06T22:43:44.489Z,16.58
2023-03-06T22:47:47.481Z,14.88
2023-03-06T22:51:50.370Z,14.43
2023-03-06T22:55:53.350Z,15.45
2023-03-06T22:59:59.527Z,14.75
2023-03-06T23:04:04.875Z,14.60
2023-03-06T23:08:07.813Z,14.48
2023-03-06T23:12:11.654Z,13.50
2023-03-06T23:16:34.997Z,13.02
2023-03-06T23:20:56.480Z,12.25
2023-03-06T23:25:18.078Z,12.00
2023-03-06T23:29:20.960Z,11.52
2023-03-06T23:33:25.379Z,11.73
2023-03-06T23:37:28.333Z,11.57
2023-03-06T23:41:31.841Z,11.10
2023-03-06T23:45:34.921Z,10.70
2023-03-06T23:49:39.915Z,11.25
2023-03-06T23:53:42.969Z,10.43
2023-03-06T23:57:45.897Z,11.70
